Flugplatz Thalmässing-Waizenhofen (EDPW)

Hier findest Du alle Informationen zum Flugplatz Thalmässing-Waizenhofen (EDPW).

Informationen für Piloten zum Flugplatz Thalmässing-Waizenhofen

Hier findest Du alle relevanten Informationen, die Du als Pilot benötigst, um Thalmässing-Waizenhofen anzufliegen.

Flugplatz: Thalmässing-Waizenhofen ICAO-Code: EDPW
Frequenz Turm: 128,860 Mhz GAFOR Gebiet: 63
Frequenz Ground: 128,860 Mhz Mogas: nein
Platzrunde: W 2700 ft Landegebühr: -
Platzhöhe: 1.892 ft Sunrise: 03:09 Uhr UTC
Pisten: 17/35 - 412 m x 30 m, GRAS Sunset: 19:25 Uhr UTC

Flugwetter am Flugplatz Thalmässing-Waizenhofen

Die METAR Information stammen aus EDDN (49.29 km entfernt).

METAR Code:
2024/06/23 17:50
EDDN 231750Z AUTO 04006KT 010V080 9999 FEW047 22/14 Q1018 NOSIG

Flugschulen am Flugplatz Thalmässing-Waizenhofen

Am Flugplatz Thalmässing-Waizenhofen gibt es eine Flugschule.

Benachbarte Flugplätze und Flugschulen

Es gibt 22 weitere Flugplätze in einem Umkreis von 50 km um den Flugplatz Thalmässing-Waizenhofen.

Jetzt anmelden

Passwort vergessen

Umfrage Archiv

Wie häufig haltet Ihr die Halbkreisflugregel ein?

Eher häufig!
36 %
Immer!
30.7 %
Hin und wieder!
16.7 %
Nie!
9.5 %
Eher selten!
7.2 %
Stimmen: 264 | Diskussion
Anzeige: Roland Aircraft
Statistik Alle Mitglieder

Aktuell sind 32 Besucher online, davon 4 Mitglieder und 28 Gäste.


Mitglieder online:
b3nn0  aviatrix  echt_weg  raller 

Anzeige: EasyVFR